Main page
METAR-TAF:

METAR-TAF

Airports :

Altenburg, Germany

Leipzig–Altenburg Airport

latitude: 50-58N, longitude: 012-30E, elevation: 195 m

Current weather observation

The report was made 2 hours and 26 minutes ago, at 16:50 UTC
Wind 3 kt from the Southeast
Temperature 1°C
Humidity 100%
Pressure 1025 hPa
Visibility 10 km or more
patches of fog

METAR: EDAC 171650Z 14003KT 9999 BCFG NSC 01/01 Q1025

Time: 20:16 (19:16 UTC)

Forecast

The report was made 2 hours and 16 minutes ago, at 17:00 UTC
Forecast valid from 17 at 18 UTC to 18 at 03 UTC
Wind 2 kt from variable directions
Visibility 10 km or more
no clouds below 1500 m and no cumulonimbus
Becoming
from 17 at 18 UTC to 17 at 21 UTC
Visibility: 2000 m
patches of fog
Probability 30% :
Temporary
from 17 at 19 UTC to 18 at 03 UTC
Visibility: 0400 m
Overcast at a height of 100 ft
fog

TAF: EDAC 171700Z 1718/1803 VRB02KT CAVOK BECMG 1718/1721 2000 BCFG PROB30 TEMPO 1719/1803 0400 FG OVC001

Weather observations and forecasts of more than 4000 airports (METAR and TAF reports).

The available stations are represented by yellow and red dots on the map.

Hover mouse over dot to see the name of the station.

Then click to see weather observations and forecasts.

To change the map : click on the green buttons with a black cross to zoom in, on the green button with a dash to zoom out, or on the green arrows for adjacent maps.


METAR-TAF: